7 Andrew Dixon

Nationality
wal Wales
Position
Midfielder
Seasons
2014/15, 2015/16, 2016/17, 2017/18
Birthday
07/10/1990
Age
27

 

 

Player Biography

Dixon joined the Seasideweres midway through the 2014/15 campaign having trained with the Exiles for a few months. A skillful attacking midfielder with an eye for goal, he made an immediate impact being named MOTM against RAFA FC on debut and following that up by scoring 4 goals in the 9-1 demolition of Pontcanna Athletic. Having taken a temporary break from playing, Dixon has rejoined the Exiles for the second half of the 2015/16 season and will hopefully be able to make the same impact.

 

Playing Statistics

SeasonGoalsWin %Draw %Loss %
2014/15550.0010.0040.00
2015/1620.0033.330.00
DateHomeResultsAwayKick Off
2017-09-30 14:00:3630/09/20171 - 2 14:00:362:00 pm
2017-09-23 14:00:2623/09/20174 - 7 14:00:262:00 pm
2017-09-16 14:00:1816/09/20176 - 2 14:00:182:00 pm
2017-09-09 14:00:4409/09/20173 - 5 14:00:442:00 pm
2017-09-05 18:30:3305/09/20173 - 2 18:30:336:30 pm
2017-09-01 18:30:3601/09/20172 - 5 18:30:366:30 pm
2017-05-09 18:30:5509/05/20175 - 1 18:30:556:30 pm
2017-04-22 14:00:3422/04/20174 - 2 14:00:342:00 pm
2017-04-15 14:00:4215/04/20175 - 3 14:00:422:00 pm
2017-04-08 14:00:5408/04/20178 - 0 14:00:542:00 pm
2017-04-01 14:00:5501/04/20170 - 5 14:00:552:00 pm
2017-03-25 14:00:0325/03/20172 - 1 14:00:032:00 pm
2017-03-18 14:00:3418/03/20171 - 4 14:00:342:00 pm
2017-02-11 14:00:5111/02/20176 - 2 14:00:512:00 pm
2017-01-21 14:00:1221/01/20171 - 2 14:00:122:00 pm
2017-01-07 14:00:1407/01/20177 - 0 14:00:142:00 pm
2016-10-15 14:00:5315/10/20160 - 7 14:00:532:00 pm
2016-10-08 14:00:5308/10/20160 - 3 14:00:532:00 pm
2016-10-01 14:00:0301/10/20161 - 2 14:00:032:00 pm
2016-09-17 14:00:0117/09/20162 - 9 14:00:012:00 pm
2016-09-10 14:00:5710/09/20161 - 9 14:00:572:00 pm
2016-09-03 14:00:3803/09/20163 - 1 14:00:382:00 pm
2016-04-28 18:00:0028/04/20161 - 1 18:00:006:00 pm
2016-04-21 18:00:0021/04/20161 - 1 18:00:006:00 pm
2016-04-09 14:00:0009/04/20160 - 4 14:00:002:00 pm
2016-03-19 13:45:4619/03/20164 - 0 13:45:461:45 pm
2016-03-19 13:45:1019/03/20164 - 0 13:45:101:45 pm
2016-02-13 13:45:1013/02/20162 - 1 13:45:101:45 pm
2015-04-11 14:00:0011/04/20151 - 0 14:00:002:00 pm
2015-04-07 14:00:0007/04/20153 - 3 14:00:002:00 pm
2015-04-04 14:00:0004/04/20152 - 7 14:00:002:00 pm
2015-03-28 14:00:0028/03/20153 - 4 14:00:002:00 pm
2015-03-14 14:00:0014/03/20150 - 3 14:00:002:00 pm
2015-03-07 14:00:0007/03/20153 - 2 14:00:002:00 pm
2015-02-21 14:00:0021/02/20154 - 1 14:00:002:00 pm
2015-02-14 13:45:0014/02/20151 - 6 13:45:001:45 pm
2015-01-24 14:00:0024/01/20159 - 1 14:00:002:00 pm
2014-12-06 13:45:0006/12/20140 - 3 13:45:001:45 pm